createdAt,value
2018-04-10T00:01:13.761Z,18.20
2018-04-10T00:03:42.076Z,18.12
2018-04-10T00:06:10.434Z,18.12
2018-04-10T00:08:38.933Z,18.02
2018-04-10T00:11:07.313Z,17.83
2018-04-10T00:13:36.475Z,17.95
2018-04-10T00:16:04.852Z,17.86
2018-04-10T00:18:33.167Z,18.05
2018-04-10T00:21:01.495Z,17.91
2018-04-10T00:23:29.846Z,17.89
2018-04-10T00:25:59.076Z,17.70
2018-04-10T00:28:27.396Z,17.60
2018-04-10T00:30:55.811Z,17.73
2018-04-10T00:33:24.167Z,17.67
2018-04-10T00:35:52.506Z,17.78
2018-04-10T00:38:20.927Z,17.56
2018-04-10T00:40:49.570Z,17.64
2018-04-10T00:43:17.941Z,17.53
2018-04-10T00:45:46.284Z,17.63
2018-04-10T00:48:15.410Z,17.63
2018-04-10T00:50:43.724Z,17.58
2018-04-10T00:53:29.824Z,17.57
2018-04-10T00:55:58.160Z,17.45
2018-04-10T00:58:26.528Z,17.28
2018-04-10T01:00:54.947Z,17.42
2018-04-10T01:03:23.305Z,17.36
2018-04-10T01:05:51.656Z,17.54
2018-04-10T01:08:20.045Z,17.62
2018-04-10T01:10:48.439Z,17.31
2018-04-10T01:13:16.787Z,17.53
2018-04-10T01:15:46.141Z,17.43
2018-04-10T01:18:14.454Z,17.43
2018-04-10T01:20:42.806Z,17.47
2018-04-10T01:23:11.183Z,17.42
2018-04-10T01:25:39.528Z,17.35
2018-04-10T01:28:07.872Z,17.46
2018-04-10T01:30:36.996Z,17.39
2018-04-10T01:33:05.321Z,17.21
2018-04-10T01:35:34.419Z,17.47
2018-04-10T01:38:02.844Z,17.41
2018-04-10T01:40:31.164Z,17.38
2018-04-10T01:42:59.746Z,17.45
2018-04-10T01:45:28.116Z,17.46
2018-04-10T01:47:56.443Z,17.42
2018-04-10T01:50:24.779Z,17.45
2018-04-10T01:52:53.131Z,17.49
2018-04-10T01:55:21.662Z,17.59
2018-04-10T01:57:49.964Z,17.56
2018-04-10T02:00:18.853Z,17.64
2018-04-10T02:02:47.203Z,17.63
2018-04-10T02:05:16.346Z,17.63
2018-04-10T02:07:44.698Z,17.44
2018-04-10T02:10:13.009Z,17.66
2018-04-10T02:15:14.914Z,17.58
2018-04-10T02:17:43.248Z,17.54
2018-04-10T02:20:11.603Z,17.60
2018-04-10T02:22:40.698Z,17.57
2018-04-10T02:25:09.084Z,17.63
2018-04-10T02:27:38.150Z,17.64
2018-04-10T02:30:06.491Z,17.63
2018-04-10T02:32:34.816Z,17.54
2018-04-10T02:35:03.134Z,17.54
2018-04-10T02:37:31.474Z,17.46
2018-04-10T02:39:59.802Z,17.49
2018-04-10T02:42:28.108Z,17.48
2018-04-10T02:44:56.972Z,17.47
2018-04-10T02:47:25.302Z,17.50
2018-04-10T02:49:53.665Z,17.46
2018-04-10T02:52:22.007Z,17.24
2018-04-10T02:54:50.339Z,17.25
2018-04-10T02:57:19.495Z,17.20
2018-04-10T02:59:47.821Z,17.15
2018-04-10T03:02:16.166Z,17.14
2018-04-10T03:04:44.495Z,17.06
2018-04-10T03:07:13.117Z,17.07
2018-04-10T03:09:41.424Z,17.14
2018-04-10T03:12:09.731Z,17.14
2018-04-10T03:14:38.073Z,17.06
2018-04-10T03:17:06.399Z,17.07
2018-04-10T03:19:35.498Z,17.09
2018-04-10T03:22:03.864Z,17.05
2018-04-10T03:24:32.175Z,16.87
2018-04-10T03:27:00.535Z,16.92
2018-04-10T03:29:29.101Z,16.93
2018-04-10T03:31:57.430Z,16.86
2018-04-10T03:34:25.743Z,16.91
2018-04-10T03:36:54.093Z,16.91
2018-04-10T03:39:22.413Z,16.77
2018-04-10T03:41:51.550Z,16.77
2018-04-10T03:44:19.920Z,16.76
2018-04-10T03:46:48.236Z,16.72
2018-04-10T03:49:16.567Z,16.63
2018-04-10T03:51:45.417Z,16.64
2018-04-10T03:54:13.733Z,16.67
2018-04-10T03:56:42.044Z,16.45
2018-04-10T04:01:43.805Z,16.45
2018-04-10T04:04:12.169Z,16.56
2018-04-10T04:06:40.532Z,16.37
2018-04-10T04:09:09.628Z,16.44
2018-04-10T04:11:38.970Z,16.25
2018-04-10T04:14:07.313Z,16.25
2018-04-10T04:16:53.254Z,16.11
2018-04-10T04:19:39.108Z,16.02
2018-04-10T04:22:25.170Z,15.93
2018-04-10T04:24:53.527Z,15.92
2018-04-10T04:27:21.865Z,15.82
2018-04-10T04:29:50.654Z,15.91
2018-04-10T04:32:19.085Z,15.98
2018-04-10T04:34:47.440Z,15.97
2018-04-10T04:37:15.926Z,15.77
2018-04-10T04:39:44.259Z,15.90
2018-04-10T04:42:13.345Z,16.02
2018-04-10T04:44:42.443Z,15.93
2018-04-10T04:47:11.682Z,15.75
2018-04-10T04:49:40.073Z,15.92
2018-04-10T04:52:08.994Z,15.97
2018-04-10T04:54:37.472Z,16.00
2018-04-10T04:57:05.853Z,16.12
2018-04-10T04:59:35.165Z,16.00
2018-04-10T05:02:04.333Z,16.04
2018-04-10T05:04:32.684Z,16.04
2018-04-10T05:07:01.058Z,16.03
2018-04-10T05:09:29.394Z,16.06
2018-04-10T05:11:57.705Z,16.08
2018-04-10T05:14:26.229Z,16.02
2018-04-10T05:16:54.536Z,15.99
2018-04-10T05:19:22.858Z,16.21
2018-04-10T05:21:51.188Z,16.23
2018-04-10T05:24:19.521Z,16.21
2018-04-10T05:26:47.864Z,16.12
2018-04-10T05:29:16.991Z,16.17
2018-04-10T05:31:45.325Z,16.17
2018-04-10T05:34:13.648Z,16.22
2018-04-10T05:36:42.043Z,16.05
2018-04-10T05:39:10.375Z,16.19
2018-04-10T05:41:38.688Z,16.15
2018-04-10T05:44:07.031Z,16.23
2018-04-10T05:46:36.291Z,16.34
2018-04-10T05:49:04.634Z,16.44
2018-04-10T05:51:33.042Z,16.53
2018-04-10T05:54:01.354Z,16.70
2018-04-10T05:56:29.673Z,16.79
2018-04-10T05:58:58.451Z,16.82
2018-04-10T06:01:26.783Z,16.84
2018-04-10T06:03:55.166Z,17.06
2018-04-10T06:06:23.500Z,17.22
2018-04-10T06:08:51.822Z,17.38
2018-04-10T06:11:20.183Z,17.37
2018-04-10T06:13:48.540Z,17.38
2018-04-10T06:16:16.848Z,17.56
2018-04-10T06:18:45.170Z,17.85
2018-04-10T06:21:14.316Z,17.86
2018-04-10T06:23:42.637Z,17.74
2018-04-10T06:26:11.716Z,17.86
2018-04-10T06:28:40.066Z,17.89
2018-04-10T06:31:08.474Z,17.97
2018-04-10T06:33:36.840Z,17.94
2018-04-10T06:36:05.195Z,18.14
2018-04-10T06:38:33.529Z,18.03
2018-04-10T06:41:02.650Z,17.91
2018-04-10T06:43:31.152Z,18.13
2018-04-10T06:45:59.465Z,18.23
2018-04-10T06:48:27.974Z,18.36
2018-04-10T06:50:57.075Z,18.57
2018-04-10T06:53:26.144Z,18.86
2018-04-10T06:55:54.442Z,19.19
2018-04-10T06:58:23.600Z,19.17
2018-04-10T07:00:51.927Z,19.26
2018-04-10T07:03:20.249Z,19.30
2018-04-10T07:05:48.751Z,19.52
2018-04-10T07:08:17.101Z,19.85
2018-04-10T07:10:45.441Z,19.83
2018-04-10T07:13:13.811Z,20.33
2018-04-10T07:15:42.164Z,20.33
2018-04-10T07:18:10.476Z,20.32
2018-04-10T07:20:38.826Z,20.53
2018-04-10T07:23:07.164Z,20.86
2018-04-10T07:25:35.508Z,20.80
2018-04-10T07:28:05.000Z,20.91
2018-04-10T07:30:33.327Z,20.93
2018-04-10T07:33:01.826Z,21.02
2018-04-10T07:35:30.329Z,21.56
2018-04-10T07:37:58.660Z,21.68
2018-04-10T07:40:26.988Z,21.93
2018-04-10T07:42:55.388Z,22.22
2018-04-10T07:45:24.461Z,22.54
2018-04-10T07:47:52.800Z,22.97
2018-04-10T07:50:22.175Z,23.23
2018-04-10T07:52:50.542Z,23.38
2018-04-10T07:55:18.903Z,22.87
2018-04-10T07:57:47.289Z,23.34
2018-04-10T08:00:15.595Z,24.24
2018-04-10T08:02:44.669Z,24.51
2018-04-10T08:05:13.020Z,24.52
2018-04-10T08:07:41.431Z,25.11
2018-04-10T08:10:09.788Z,25.58
2018-04-10T08:12:38.507Z,25.63
2018-04-10T08:15:07.606Z,25.68
2018-04-10T08:17:35.908Z,26.20
2018-04-10T08:20:04.236Z,26.98
2018-04-10T08:22:32.598Z,27.01
2018-04-10T08:25:00.972Z,27.18
2018-04-10T08:27:29.349Z,25.95
2018-04-10T08:29:57.696Z,26.03
2018-04-10T08:32:26.027Z,26.28
2018-04-10T08:34:54.562Z,26.59
2018-04-10T08:37:22.895Z,26.41
2018-04-10T08:39:51.228Z,26.73
2018-04-10T08:42:19.581Z,26.59
2018-04-10T08:44:48.670Z,27.38
2018-04-10T08:47:17.758Z,27.39
2018-04-10T08:49:46.115Z,27.56
2018-04-10T08:52:14.470Z,27.79
2018-04-10T08:54:42.803Z,27.42
2018-04-10T08:57:12.409Z,27.55
2018-04-10T08:59:40.726Z,28.22
2018-04-10T09:02:09.080Z,29.33
2018-04-10T09:04:37.417Z,29.77
2018-04-10T09:07:05.743Z,30.11
2018-04-10T09:09:34.131Z,30.41
2018-04-10T09:12:03.238Z,31.02
2018-04-10T09:14:31.543Z,31.02
2018-04-10T09:16:59.846Z,31.43
2018-04-10T09:19:28.439Z,31.82
2018-04-10T09:21:57.581Z,31.61
2018-04-10T09:24:25.928Z,32.16
2018-04-10T09:26:54.295Z,32.17
2018-04-10T09:29:23.403Z,32.96
2018-04-10T09:31:52.479Z,32.65
2018-04-10T09:34:20.864Z,32.41
2018-04-10T09:36:49.195Z,32.82
2018-04-10T09:39:17.552Z,32.84
2018-04-10T09:41:45.983Z,32.11
2018-04-10T09:44:14.327Z,31.56
2018-04-10T09:46:42.677Z,31.58
2018-04-10T09:49:11.020Z,33.07
2018-04-10T09:51:39.351Z,33.23
2018-04-10T09:54:07.669Z,33.76
2018-04-10T09:56:36.007Z,33.40
2018-04-10T09:59:04.337Z,33.55
2018-04-10T10:01:32.666Z,33.37
2018-04-10T10:04:01.242Z,33.42
2018-04-10T10:06:29.591Z,34.29
2018-04-10T10:08:58.802Z,34.32
2018-04-10T10:11:27.170Z,33.41
2018-04-10T10:13:55.518Z,33.31
2018-04-10T10:16:23.827Z,34.21
2018-04-10T10:18:52.191Z,34.13
2018-04-10T10:21:21.302Z,33.76
2018-04-10T10:23:49.684Z,33.52
2018-04-10T10:26:18.184Z,33.45
2018-04-10T10:28:46.519Z,33.62
2018-04-10T10:31:14.849Z,32.58
2018-04-10T10:33:43.244Z,32.14
2018-04-10T10:36:11.559Z,32.35
2018-04-10T10:38:39.875Z,32.68
2018-04-10T10:41:08.995Z,33.28
2018-04-10T10:43:37.341Z,33.67
2018-04-10T10:46:05.680Z,34.24
2018-04-10T10:48:34.311Z,32.65
2018-04-10T10:51:02.663Z,33.78
2018-04-10T10:53:31.085Z,34.48
2018-04-10T10:55:59.437Z,35.01
2018-04-10T10:58:27.747Z,35.53
2018-04-10T11:00:56.063Z,34.62
2018-04-10T11:03:24.430Z,35.51
2018-04-10T11:05:52.779Z,34.22
2018-04-10T11:08:21.135Z,34.05
2018-04-10T11:10:49.823Z,34.25
2018-04-10T11:13:18.153Z,35.31
2018-04-10T11:15:46.468Z,35.75
2018-04-10T11:18:14.858Z,35.35
2018-04-10T11:20:44.176Z,34.87
2018-04-10T11:23:13.307Z,35.26
2018-04-10T11:25:41.692Z,36.09
2018-04-10T11:28:10.830Z,35.49
2018-04-10T11:30:39.164Z,35.19
2018-04-10T11:33:07.956Z,34.76
2018-04-10T11:35:36.278Z,34.73
2018-04-10T11:38:04.597Z,34.96
2018-04-10T11:40:32.968Z,33.94
2018-04-10T11:43:01.287Z,33.55
2018-04-10T11:45:29.649Z,33.95
2018-04-10T11:47:58.022Z,33.47
2018-04-10T11:50:26.328Z,33.60
2018-04-10T11:52:54.646Z,34.39
2018-04-10T11:55:24.233Z,34.77
2018-04-10T11:57:52.543Z,35.17
2018-04-10T12:00:20.850Z,34.60
2018-04-10T12:02:49.218Z,34.55
2018-04-10T12:05:17.563Z,35.04
2018-04-10T12:07:46.627Z,34.89
2018-04-10T12:10:14.994Z,33.68
2018-04-10T12:12:43.322Z,33.82
2018-04-10T12:15:11.649Z,34.39
2018-04-10T12:17:40.299Z,34.45
2018-04-10T12:20:08.635Z,34.42
2018-04-10T12:22:36.972Z,33.92
2018-04-10T12:25:05.308Z,33.37
2018-04-10T12:27:33.632Z,32.83
2018-04-10T12:30:01.949Z,32.69
2018-04-10T12:32:30.307Z,32.33
2018-04-10T12:34:58.613Z,33.09
2018-04-10T12:37:26.942Z,32.53
2018-04-10T12:39:55.379Z,32.91
2018-04-10T12:42:23.712Z,32.38
2018-04-10T12:44:52.057Z,32.93
2018-04-10T12:47:20.427Z,33.88
2018-04-10T12:49:49.505Z,32.79
2018-04-10T12:52:17.815Z,32.16
2018-04-10T12:54:46.174Z,31.43
2018-04-10T12:57:15.287Z,30.61
2018-04-10T12:59:43.625Z,30.35
2018-04-10T13:02:12.168Z,30.71
2018-04-10T13:04:40.506Z,30.98
2018-04-10T13:07:08.803Z,31.40
2018-04-10T13:09:37.921Z,30.93
2018-04-10T13:12:06.239Z,30.71
2018-04-10T13:14:34.559Z,30.59
2018-04-10T13:17:02.901Z,30.46
2018-04-10T13:19:31.207Z,30.37
2018-04-10T13:21:59.527Z,30.20
2018-04-10T13:24:28.251Z,29.70
2018-04-10T13:26:56.564Z,29.22
2018-04-10T13:29:24.912Z,28.90
2018-04-10T13:31:53.284Z,29.34
2018-04-10T13:34:21.658Z,29.30
2018-04-10T13:36:50.019Z,29.58
2018-04-10T13:39:18.357Z,28.79
2018-04-10T13:41:46.675Z,28.49
2018-04-10T13:44:14.994Z,28.32
2018-04-10T13:46:44.192Z,28.07
2018-04-10T13:49:12.596Z,27.54
2018-04-10T13:51:41.672Z,26.75
2018-04-10T13:54:10.779Z,27.45
2018-04-10T13:56:40.262Z,27.35
2018-04-10T13:59:08.599Z,27.11
2018-04-10T14:01:36.937Z,26.92
2018-04-10T14:04:05.281Z,26.42
2018-04-10T14:06:33.653Z,26.07
2018-04-10T14:09:02.200Z,25.83
2018-04-10T14:11:30.569Z,25.68
2018-04-10T14:13:58.925Z,25.88
2018-04-10T14:16:27.290Z,25.86
2018-04-10T14:18:55.643Z,25.75
2018-04-10T14:21:23.967Z,25.62
2018-04-10T14:23:53.094Z,25.54
2018-04-10T14:26:21.444Z,25.62
2018-04-10T14:28:50.532Z,25.77
2018-04-10T14:31:19.011Z,25.60
2018-04-10T14:33:47.316Z,25.41
2018-04-10T14:36:16.398Z,25.52
2018-04-10T14:38:45.551Z,25.29
2018-04-10T14:41:13.902Z,24.92
2018-04-10T14:43:42.247Z,25.07
2018-04-10T14:46:11.366Z,25.07
2018-04-10T14:48:39.697Z,25.25
2018-04-10T14:51:08.044Z,25.19
2018-04-10T14:53:36.668Z,25.51
2018-04-10T14:56:04.973Z,25.25
2018-04-10T14:58:33.410Z,25.19
2018-04-10T15:01:01.789Z,25.26
2018-04-10T15:03:30.100Z,24.61
2018-04-10T15:05:58.432Z,24.65
2018-04-10T15:08:26.839Z,24.61
2018-04-10T15:10:55.175Z,24.19
2018-04-10T15:13:23.498Z,24.23
2018-04-10T15:15:51.910Z,23.94
2018-04-10T15:18:20.260Z,23.93
2018-04-10T15:20:48.607Z,24.05
2018-04-10T15:23:16.932Z,23.82
2018-04-10T15:25:45.245Z,23.96
2018-04-10T15:28:13.568Z,24.20
2018-04-10T15:30:41.937Z,24.03
2018-04-10T15:33:10.246Z,23.84
2018-04-10T15:35:38.583Z,23.35
2018-04-10T15:38:07.004Z,23.26
2018-04-10T15:40:36.073Z,23.11
2018-04-10T15:43:04.395Z,23.03
2018-04-10T15:45:33.503Z,22.98
2018-04-10T15:48:01.847Z,23.20
2018-04-10T15:50:30.194Z,22.93
2018-04-10T15:52:58.564Z,22.49
2018-04-10T15:55:26.914Z,22.21
2018-04-10T15:57:55.238Z,22.27
2018-04-10T16:00:24.257Z,22.10
2018-04-10T16:02:52.604Z,21.73
2018-04-10T16:05:20.965Z,21.68
2018-04-10T16:07:49.315Z,21.60
2018-04-10T16:10:17.663Z,21.22
2018-04-10T16:12:46.000Z,21.05
2018-04-10T16:15:14.355Z,20.90
2018-04-10T16:17:42.681Z,20.81
2018-04-10T16:20:10.975Z,20.70
2018-04-10T16:22:39.508Z,20.62
2018-04-10T16:25:07.820Z,20.99
2018-04-10T16:27:36.148Z,20.39
2018-04-10T16:30:04.511Z,20.43
2018-04-10T16:32:33.590Z,20.00
2018-04-10T16:35:01.896Z,19.93
2018-04-10T16:37:31.007Z,19.88
2018-04-10T16:40:00.108Z,19.70
2018-04-10T16:42:28.444Z,19.61
2018-04-10T16:44:56.859Z,19.38
2018-04-10T16:47:25.958Z,19.19
2018-04-10T16:49:54.296Z,18.98
2018-04-10T16:52:22.621Z,19.22
2018-04-10T16:54:51.027Z,19.47
2018-04-10T16:57:19.356Z,19.01
2018-04-10T16:59:48.473Z,18.63
2018-04-10T17:02:16.779Z,18.50
2018-04-10T17:04:45.116Z,18.27
2018-04-10T17:07:14.576Z,18.46
2018-04-10T17:09:42.913Z,18.26
2018-04-10T17:12:11.255Z,17.87
2018-04-10T17:14:39.658Z,17.24
2018-04-10T17:17:08.793Z,17.34
2018-04-10T17:19:38.854Z,17.28
2018-04-10T17:22:07.231Z,16.99
2018-04-10T17:24:35.588Z,17.09
2018-04-10T17:27:03.950Z,17.20
2018-04-10T17:29:33.526Z,17.10
2018-04-10T17:32:01.891Z,16.87
2018-04-10T17:34:31.077Z,16.84
2018-04-10T17:36:59.521Z,16.67
2018-04-10T17:39:27.849Z,16.52
2018-04-10T17:41:56.212Z,16.27
2018-04-10T17:44:24.610Z,16.17
2018-04-10T17:46:52.937Z,15.77
2018-04-10T17:49:21.247Z,15.60
2018-04-10T17:51:50.429Z,15.56
2018-04-10T17:54:18.745Z,15.52
2018-04-10T17:56:47.066Z,15.41
2018-04-10T17:59:15.408Z,15.31
2018-04-10T18:01:44.901Z,15.33
2018-04-10T18:04:14.005Z,15.23
2018-04-10T18:06:43.140Z,15.03
2018-04-10T18:09:11.476Z,14.83
2018-04-10T18:11:40.563Z,14.78
2018-04-10T18:14:09.195Z,14.63
2018-04-10T18:16:37.521Z,14.49
2018-04-10T18:19:05.876Z,14.62
2018-04-10T18:21:34.230Z,14.37
2018-04-10T18:24:02.573Z,14.03
2018-04-10T18:26:31.664Z,13.93
2018-04-10T18:29:00.047Z,14.03
2018-04-10T18:31:29.133Z,14.13
2018-04-10T18:33:57.487Z,13.81
2018-04-10T18:36:25.952Z,13.80
2018-04-10T18:38:54.291Z,13.73
2018-04-10T18:41:22.618Z,13.85
2018-04-10T18:43:50.996Z,13.71
2018-04-10T18:46:19.343Z,13.29
2018-04-10T18:48:47.681Z,13.44
2018-04-10T18:51:16.040Z,13.10
2018-04-10T18:53:44.390Z,12.77
2018-04-10T18:56:12.848Z,12.70
2018-04-10T18:58:42.096Z,12.64
2018-04-10T19:01:10.514Z,12.53
2018-04-10T19:03:40.226Z,12.37
2018-04-10T19:06:08.795Z,12.75
2018-04-10T19:08:37.155Z,12.67
2018-04-10T19:11:05.532Z,12.31
2018-04-10T19:13:33.971Z,12.59
2018-04-10T19:16:02.299Z,12.70
2018-04-10T19:18:30.669Z,12.51
2018-04-10T19:20:59.442Z,12.79
2018-04-10T19:23:27.881Z,12.68
2018-04-10T19:25:57.085Z,12.55
2018-04-10T19:28:25.459Z,12.31
2018-04-10T19:30:54.582Z,12.38
2018-04-10T19:33:22.960Z,12.11
2018-04-10T19:35:51.295Z,12.06
2018-04-10T19:38:19.641Z,11.88
2018-04-10T19:40:47.987Z,11.85
2018-04-10T19:43:17.391Z,11.90
2018-04-10T19:45:46.520Z,12.26
2018-04-10T19:48:15.747Z,11.85
2018-04-10T19:50:44.396Z,11.86
2018-04-10T19:53:12.812Z,11.92
2018-04-10T19:55:41.122Z,11.74
2018-04-10T19:58:10.312Z,11.70
2018-04-10T20:00:38.652Z,11.65
2018-04-10T20:03:06.984Z,11.77
2018-04-10T20:05:36.037Z,11.82
2018-04-10T20:08:04.357Z,11.54
2018-04-10T20:10:32.679Z,11.35
2018-04-10T20:13:01.018Z,11.42
2018-04-10T20:15:29.340Z,11.27
2018-04-10T20:17:57.668Z,11.32
2018-04-10T20:20:26.761Z,11.34
2018-04-10T20:22:55.083Z,11.62
2018-04-10T20:25:23.391Z,11.62
2018-04-10T20:27:51.895Z,11.59
2018-04-10T20:30:21.017Z,11.63
2018-04-10T20:32:49.335Z,11.58
2018-04-10T20:35:17.716Z,11.50
2018-04-10T20:37:46.067Z,11.51
2018-04-10T20:40:14.552Z,11.43
2018-04-10T20:42:42.879Z,11.32
2018-04-10T20:45:11.246Z,11.39
2018-04-10T20:47:39.585Z,11.55
2018-04-10T20:50:08.434Z,11.80
2018-04-10T20:52:37.524Z,11.55
2018-04-10T20:55:05.863Z,11.51
2018-04-10T20:57:34.219Z,11.34
2018-04-10T21:00:02.528Z,11.59
2018-04-10T21:02:30.856Z,11.53
2018-04-10T21:04:59.991Z,11.87
2018-04-10T21:07:28.341Z,11.79
2018-04-10T21:09:56.726Z,11.83
2018-04-10T21:12:25.191Z,11.69
2018-04-10T21:14:53.582Z,11.82
2018-04-10T21:17:21.951Z,11.58
2018-04-10T21:19:51.093Z,11.60
2018-04-10T21:22:19.423Z,11.39
2018-04-10T21:24:48.941Z,11.40
2018-04-10T21:27:17.352Z,11.38
2018-04-10T21:29:45.665Z,11.49
2018-04-10T21:32:13.984Z,11.39
2018-04-10T21:34:42.738Z,11.49
2018-04-10T21:37:11.055Z,11.68
2018-04-10T21:39:39.443Z,11.46
2018-04-10T21:42:07.888Z,11.52
2018-04-10T21:44:36.246Z,11.50
2018-04-10T21:47:05.200Z,11.43
2018-04-10T21:49:33.880Z,11.46
2018-04-10T21:52:02.183Z,11.42
2018-04-10T21:54:30.799Z,11.47
2018-04-10T21:57:00.137Z,11.46
2018-04-10T21:59:28.487Z,11.57
2018-04-10T22:01:56.958Z,11.48
2018-04-10T22:04:25.354Z,11.49
2018-04-10T22:06:54.611Z,11.51
2018-04-10T22:09:22.975Z,11.32
2018-04-10T22:11:51.333Z,11.06
2018-04-10T22:14:19.719Z,11.05
2018-04-10T22:16:48.257Z,11.06
2018-04-10T22:19:17.159Z,11.12
2018-04-10T22:21:46.411Z,11.05
2018-04-10T22:24:14.792Z,11.26
2018-04-10T22:26:43.276Z,11.31
2018-04-10T22:29:11.766Z,11.18
2018-04-10T22:31:40.172Z,11.27
2018-04-10T22:34:08.643Z,11.22
2018-04-10T22:36:37.852Z,11.34
2018-04-10T22:39:07.097Z,11.34
2018-04-10T22:41:35.717Z,11.41
2018-04-10T22:44:04.125Z,11.33
2018-04-10T22:46:32.631Z,11.23
2018-04-10T22:49:01.053Z,11.21
2018-04-10T22:51:29.534Z,11.06
2018-04-10T22:53:57.935Z,11.02
2018-04-10T22:56:27.123Z,11.12
2018-04-10T22:58:56.319Z,11.12
2018-04-10T23:01:24.704Z,11.12
2018-04-10T23:03:53.331Z,11.33
2018-04-10T23:06:21.638Z,11.28
2018-04-10T23:08:50.360Z,11.16
2018-04-10T23:11:18.722Z,11.09
2018-04-10T23:13:47.044Z,11.15
2018-04-10T23:16:15.406Z,11.11
2018-04-10T23:18:43.760Z,11.06
2018-04-10T23:21:12.088Z,11.14
2018-04-10T23:23:41.177Z,10.95
2018-04-10T23:26:09.638Z,10.83
2018-04-10T23:28:37.979Z,10.80
2018-04-10T23:31:06.298Z,10.95
2018-04-10T23:33:34.656Z,10.92
2018-04-10T23:36:02.975Z,11.05
2018-04-10T23:38:31.282Z,11.03
2018-04-10T23:40:59.657Z,10.90
2018-04-10T23:43:27.988Z,10.77
2018-04-10T23:45:56.314Z,10.69
2018-04-10T23:48:24.736Z,10.82
2018-04-10T23:50:53.063Z,10.74
2018-04-10T23:53:21.378Z,10.73
2018-04-10T23:55:49.735Z,10.72
2018-04-10T23:58:18.052Z,10.70
